createdAt,value
2023-04-27T00:00:39.600Z,3.19
2023-04-27T00:03:06.435Z,3.20
2023-04-27T00:05:37.059Z,3.15
2023-04-27T00:08:03.540Z,3.09
2023-04-27T00:10:29.970Z,3.06
2023-04-27T00:12:56.404Z,3.05
2023-04-27T00:15:23.193Z,3.05
2023-04-27T00:17:49.727Z,3.13
2023-04-27T00:20:16.140Z,3.17
2023-04-27T00:22:42.583Z,3.16
2023-04-27T00:25:09.116Z,3.16
2023-04-27T00:27:35.645Z,3.17
2023-04-27T00:30:02.107Z,3.10
2023-04-27T00:32:28.577Z,3.11
2023-04-27T00:34:55.009Z,3.11
2023-04-27T00:37:21.361Z,3.06
2023-04-27T00:39:47.780Z,2.98
2023-04-27T00:42:17.271Z,2.97
2023-04-27T00:44:43.636Z,3.00
2023-04-27T00:47:11.112Z,2.97
2023-04-27T00:49:37.998Z,2.87
2023-04-27T00:52:04.626Z,2.72
2023-04-27T00:54:31.520Z,2.68
2023-04-27T00:56:57.950Z,2.67
2023-04-27T00:59:25.178Z,2.68
2023-04-27T01:01:53.308Z,2.62
2023-04-27T01:04:20.061Z,2.54
2023-04-27T01:06:47.120Z,2.59
2023-04-27T01:09:14.068Z,2.66
2023-04-27T01:11:40.695Z,2.68
2023-04-27T01:14:07.532Z,2.69
2023-04-27T01:16:35.333Z,2.66
2023-04-27T01:19:01.912Z,2.65
2023-04-27T01:21:28.381Z,2.67
2023-04-27T01:23:55.005Z,2.64
2023-04-27T01:26:22.481Z,2.59
2023-04-27T01:28:49.416Z,2.47
2023-04-27T01:31:16.007Z,2.51
2023-04-27T01:33:42.265Z,2.47
2023-04-27T01:36:09.248Z,2.29
2023-04-27T01:38:36.380Z,2.20
2023-04-27T01:41:07.089Z,2.14
2023-04-27T01:43:33.506Z,2.18
2023-04-27T01:46:10.429Z,2.28
2023-04-27T01:48:37.399Z,2.34
2023-04-27T01:51:04.184Z,2.36
2023-04-27T01:53:31.151Z,2.36
2023-04-27T01:55:59.510Z,2.39
2023-04-27T01:58:26.420Z,2.40
2023-04-27T02:00:52.906Z,2.43
2023-04-27T02:03:19.572Z,2.42
2023-04-27T02:05:47.149Z,2.33
2023-04-27T02:08:13.698Z,2.29
2023-04-27T02:10:40.264Z,2.31
2023-04-27T02:13:06.516Z,2.35
2023-04-27T02:15:32.873Z,2.35
2023-04-27T02:17:59.236Z,2.36
2023-04-27T02:20:25.676Z,2.36
2023-04-27T02:22:53.306Z,2.31
2023-04-27T02:25:19.821Z,2.25
2023-04-27T02:27:46.579Z,2.19
2023-04-27T02:30:14.043Z,2.17
2023-04-27T02:32:41.445Z,2.19
2023-04-27T02:35:08.859Z,2.10
2023-04-27T02:37:35.713Z,2.12
2023-04-27T02:40:02.169Z,2.10
2023-04-27T02:42:29.910Z,2.05
2023-04-27T02:44:56.309Z,2.06
2023-04-27T02:47:22.691Z,1.97
2023-04-27T02:49:49.110Z,1.93
2023-04-27T02:52:15.752Z,1.95
2023-04-27T02:54:42.105Z,1.99
2023-04-27T02:57:08.528Z,1.93
2023-04-27T02:59:34.922Z,1.83
2023-04-27T03:02:01.560Z,1.79
2023-04-27T03:04:28.262Z,1.78
2023-04-27T03:06:54.828Z,1.77
2023-04-27T03:09:21.236Z,1.78
2023-04-27T03:11:47.610Z,1.81
2023-04-27T03:14:14.000Z,1.80
2023-04-27T03:16:40.674Z,1.74
2023-04-27T03:19:07.158Z,1.74
2023-04-27T03:21:33.594Z,1.75
2023-04-27T03:24:00.086Z,1.76
2023-04-27T03:26:26.639Z,1.79
2023-04-27T03:28:53.041Z,1.76
2023-04-27T03:31:19.466Z,1.74
2023-04-27T03:33:45.826Z,1.76
2023-04-27T03:36:12.449Z,1.72
2023-04-27T03:38:38.768Z,1.74
2023-04-27T03:41:05.218Z,1.75
2023-04-27T03:43:31.618Z,1.75
2023-04-27T03:45:58.167Z,1.75
2023-04-27T03:48:24.667Z,1.79
2023-04-27T03:50:51.656Z,1.74
2023-04-27T03:53:18.241Z,1.66
2023-04-27T03:55:44.859Z,1.63
2023-04-27T03:58:11.725Z,1.58
2023-04-27T04:00:39.482Z,1.63
2023-04-27T04:03:07.784Z,1.69
2023-04-27T04:05:34.838Z,1.65
2023-04-27T04:08:01.260Z,1.71
2023-04-27T04:10:27.837Z,1.74
2023-04-27T04:12:54.431Z,1.78
2023-04-27T04:15:20.901Z,1.78
2023-04-27T04:17:47.726Z,1.75
2023-04-27T04:20:14.193Z,1.75
2023-04-27T04:22:40.573Z,1.69
2023-04-27T04:25:07.298Z,1.47
2023-04-27T04:27:33.761Z,1.40
2023-04-27T04:30:00.562Z,1.42
2023-04-27T04:32:31.282Z,1.46
2023-04-27T04:35:01.337Z,1.50
2023-04-27T04:37:27.871Z,1.39
2023-04-27T04:39:54.297Z,1.40
2023-04-27T04:42:21.028Z,1.44
2023-04-27T04:44:47.398Z,1.45
2023-04-27T04:47:13.846Z,1.57
2023-04-27T04:49:40.321Z,1.58
2023-04-27T04:52:06.742Z,1.55
2023-04-27T04:54:33.151Z,1.55
2023-04-27T04:57:00.912Z,1.53
2023-04-27T04:59:27.361Z,1.51
2023-04-27T05:01:56.816Z,1.58
2023-04-27T05:04:23.438Z,1.51
2023-04-27T05:06:49.757Z,1.70
2023-04-27T05:09:16.158Z,1.81
2023-04-27T05:11:42.529Z,1.91
2023-04-27T05:14:08.963Z,1.95
2023-04-27T05:16:35.507Z,2.02
2023-04-27T05:19:01.975Z,2.06
2023-04-27T05:21:28.337Z,2.09
2023-04-27T05:23:54.708Z,2.08
2023-04-27T05:26:21.239Z,2.13
2023-04-27T05:28:49.335Z,2.28
2023-04-27T05:31:15.892Z,2.38
2023-04-27T05:33:42.219Z,2.48
2023-04-27T05:36:09.372Z,2.57
2023-04-27T05:38:37.456Z,2.65
2023-04-27T05:41:04.016Z,2.73
2023-04-27T05:43:30.357Z,2.87
2023-04-27T05:45:56.792Z,2.93
2023-04-27T05:48:23.180Z,3.02
2023-04-27T05:50:49.558Z,3.14
2023-04-27T05:53:17.209Z,3.24
2023-04-27T05:55:44.110Z,3.33
2023-04-27T05:58:10.695Z,3.41
2023-04-27T06:00:38.330Z,3.47
2023-04-27T06:03:05.043Z,3.57
2023-04-27T06:05:31.733Z,3.69
2023-04-27T06:07:58.178Z,3.80
2023-04-27T06:10:24.630Z,3.86
2023-04-27T06:12:51.070Z,3.92
2023-04-27T06:15:17.458Z,3.96
2023-04-27T06:17:46.767Z,4.02
2023-04-27T06:20:13.418Z,4.09
2023-04-27T06:22:39.802Z,4.10
2023-04-27T06:25:06.832Z,4.19
2023-04-27T06:27:33.994Z,4.28
2023-04-27T06:30:00.691Z,4.40
2023-04-27T06:32:27.104Z,4.52
2023-04-27T06:34:53.435Z,4.60
2023-04-27T06:37:19.783Z,4.66
2023-04-27T06:39:46.788Z,4.81
2023-04-27T06:42:13.416Z,4.92
2023-04-27T06:44:39.926Z,5.05
2023-04-27T06:47:06.501Z,5.15
2023-04-27T06:49:32.858Z,5.22
2023-04-27T06:52:02.840Z,5.36
2023-04-27T06:54:29.282Z,5.48
2023-04-27T06:56:55.765Z,5.65
2023-04-27T06:59:22.117Z,5.80
2023-04-27T07:01:48.724Z,5.89
2023-04-27T07:04:15.321Z,6.02
2023-04-27T07:06:41.788Z,6.10
2023-04-27T07:09:20.001Z,6.18
2023-04-27T07:11:52.800Z,6.35
2023-04-27T07:14:19.175Z,6.47
2023-04-27T07:16:46.662Z,6.60
2023-04-27T07:19:13.228Z,6.75
2023-04-27T07:21:39.815Z,6.85
2023-04-27T07:24:06.242Z,6.93
2023-04-27T07:26:32.849Z,6.99
2023-04-27T07:28:59.350Z,7.04
2023-04-27T07:31:25.865Z,7.11
2023-04-27T07:33:52.957Z,7.25
2023-04-27T07:36:19.719Z,7.38
2023-04-27T07:38:46.124Z,7.46
2023-04-27T07:41:12.505Z,7.63
2023-04-27T07:43:38.830Z,7.81
2023-04-27T07:46:05.179Z,7.95
2023-04-27T07:48:32.651Z,8.08
2023-04-27T07:50:59.037Z,8.24
2023-04-27T07:53:25.327Z,8.34
2023-04-27T07:55:51.679Z,8.54
2023-04-27T07:58:19.767Z,8.63
2023-04-27T08:00:46.630Z,8.69
2023-04-27T08:03:13.310Z,8.74
2023-04-27T08:05:40.171Z,8.77
2023-04-27T08:08:07.186Z,8.83
2023-04-27T08:10:33.853Z,8.89
2023-04-27T08:13:03.251Z,8.91
2023-04-27T08:15:29.731Z,9.05
2023-04-27T08:18:00.734Z,9.10
2023-04-27T08:20:27.187Z,9.23
2023-04-27T08:22:53.863Z,9.34
2023-04-27T08:25:20.511Z,9.40
2023-04-27T08:27:46.893Z,9.50
2023-04-27T08:30:13.704Z,9.65
2023-04-27T08:32:40.269Z,9.76
2023-04-27T08:38:48.319Z,9.78
2023-04-27T08:41:24.485Z,9.83
2023-04-27T08:43:51.982Z,9.99
2023-04-27T08:46:23.118Z,10.05
2023-04-27T08:48:50.475Z,10.11
2023-04-27T08:51:17.515Z,10.23
2023-04-27T08:53:49.503Z,10.34
2023-04-27T08:56:16.655Z,10.40
2023-04-27T08:58:43.161Z,10.49
2023-04-27T09:01:09.728Z,10.63
2023-04-27T09:03:37.230Z,10.66
2023-04-27T09:06:06.205Z,10.65
2023-04-27T09:08:49.180Z,10.69
2023-04-27T09:11:17.119Z,10.88
2023-04-27T09:13:45.422Z,11.01
2023-04-27T09:16:15.292Z,11.05
2023-04-27T09:18:43.505Z,11.09
2023-04-27T09:21:10.057Z,11.20
2023-04-27T09:23:38.596Z,11.23
2023-04-27T09:26:09.841Z,11.40
2023-04-27T09:28:40.289Z,11.55
2023-04-27T09:31:09.260Z,11.55
2023-04-27T09:33:36.211Z,11.55
2023-04-27T09:36:05.361Z,11.70
2023-04-27T09:38:32.676Z,11.80
2023-04-27T09:40:59.979Z,11.86
2023-04-27T09:43:28.589Z,11.97
2023-04-27T09:45:55.944Z,12.02
2023-04-27T09:48:23.442Z,12.07
2023-04-27T09:50:52.269Z,12.13
2023-04-27T09:53:30.650Z,12.12
2023-04-27T09:56:20.796Z,12.17
2023-04-27T09:59:10.065Z,12.48
2023-04-27T10:01:45.201Z,12.63
2023-04-27T10:04:35.087Z,12.53
2023-04-27T10:07:09.784Z,12.52
2023-04-27T10:09:46.339Z,12.69
2023-04-27T10:12:21.637Z,12.74
2023-04-27T10:14:55.375Z,12.76
2023-04-27T10:17:33.247Z,12.66
2023-04-27T10:20:01.611Z,12.58
2023-04-27T10:22:39.517Z,12.55
2023-04-27T10:25:23.542Z,12.76
2023-04-27T10:27:54.569Z,12.89
2023-04-27T10:30:23.520Z,12.95
2023-04-27T10:32:54.698Z,13.22
2023-04-27T10:35:23.036Z,13.42
2023-04-27T10:37:49.673Z,13.39
2023-04-27T10:40:19.220Z,13.36
2023-04-27T10:42:49.347Z,13.51
2023-04-27T10:45:28.455Z,13.59
2023-04-27T10:48:01.039Z,13.53
2023-04-27T10:50:27.959Z,13.47
2023-04-27T10:52:54.412Z,13.51
2023-04-27T10:55:22.693Z,13.52
2023-04-27T10:57:50.920Z,13.77
2023-04-27T11:00:39.561Z,14.06
2023-04-27T11:03:20.855Z,14.11
2023-04-27T11:05:49.473Z,14.19
2023-04-27T11:08:17.866Z,14.24
2023-04-27T11:10:46.474Z,14.22
2023-04-27T11:13:24.077Z,14.24
2023-04-27T11:15:58.160Z,14.35
2023-04-27T11:18:37.732Z,14.45
2023-04-27T11:21:09.584Z,14.73
2023-04-27T11:23:38.111Z,14.92
2023-04-27T11:26:10.788Z,15.01
2023-04-27T11:28:37.417Z,15.12
2023-04-27T11:31:04.635Z,15.28
2023-04-27T11:33:31.222Z,15.29
2023-04-27T11:35:58.058Z,15.44
2023-04-27T11:38:25.064Z,15.70
2023-04-27T11:41:05.598Z,15.96
2023-04-27T11:43:33.336Z,15.82
2023-04-27T11:46:08.156Z,16.08
2023-04-27T11:48:37.497Z,16.05
2023-04-27T11:51:05.725Z,16.07
2023-04-27T11:53:34.864Z,16.19
2023-04-27T11:56:05.973Z,16.51
2023-04-27T11:58:36.206Z,16.71
2023-04-27T12:01:06.479Z,16.86
2023-04-27T12:03:33.335Z,17.34
2023-04-27T12:06:11.313Z,17.83
2023-04-27T12:08:43.985Z,18.18
2023-04-27T12:11:10.385Z,18.24
2023-04-27T12:13:36.947Z,18.28
2023-04-27T12:16:03.376Z,18.50
2023-04-27T12:18:29.759Z,18.92
2023-04-27T12:20:56.192Z,19.15
2023-04-27T12:23:22.551Z,19.29
2023-04-27T12:25:49.193Z,19.46
2023-04-27T12:28:18.994Z,19.32
2023-04-27T12:30:45.528Z,18.93
2023-04-27T12:33:12.101Z,18.57
2023-04-27T12:35:38.654Z,18.97
2023-04-27T12:38:05.131Z,19.43
2023-04-27T12:40:31.492Z,19.81
2023-04-27T12:43:00.460Z,20.05
2023-04-27T12:45:27.474Z,20.42
2023-04-27T12:48:02.862Z,20.89
2023-04-27T12:50:36.675Z,21.17
2023-04-27T12:53:03.456Z,20.93
2023-04-27T12:55:33.719Z,21.08
2023-04-27T12:58:01.172Z,21.69
2023-04-27T13:00:27.796Z,21.77
2023-04-27T13:02:54.381Z,21.94
2023-04-27T13:05:22.290Z,22.19
2023-04-27T13:07:48.869Z,21.78
2023-04-27T13:10:15.365Z,21.67
2023-04-27T13:12:42.031Z,21.74
2023-04-27T13:15:09.235Z,21.60
2023-04-27T13:17:35.644Z,21.81
2023-04-27T13:20:02.083Z,21.69
2023-04-27T13:22:28.520Z,21.38
2023-04-27T13:24:55.099Z,21.07
2023-04-27T13:27:22.417Z,20.53
2023-04-27T13:29:51.139Z,20.50
2023-04-27T13:32:17.761Z,20.77
2023-04-27T13:34:44.358Z,20.65
2023-04-27T13:37:10.806Z,20.32
2023-04-27T13:39:37.578Z,20.14
2023-04-27T13:42:04.344Z,20.31
2023-04-27T13:44:31.824Z,20.50
2023-04-27T13:46:58.593Z,20.31
2023-04-27T13:49:25.791Z,20.19
2023-04-27T13:51:52.189Z,19.85
2023-04-27T13:54:18.580Z,19.35
2023-04-27T13:56:45.013Z,19.34
2023-04-27T13:59:11.743Z,19.51
2023-04-27T14:01:39.854Z,19.96
2023-04-27T14:04:06.403Z,20.10
2023-04-27T14:06:33.014Z,19.66
2023-04-27T14:08:59.469Z,19.96
2023-04-27T14:11:26.266Z,20.56
2023-04-27T14:13:52.769Z,20.82
2023-04-27T14:16:19.206Z,20.79
2023-04-27T14:18:45.584Z,20.71
2023-04-27T14:21:11.940Z,20.76
2023-04-27T14:23:38.315Z,20.74
2023-04-27T14:26:05.814Z,20.62
2023-04-27T14:28:32.199Z,20.44
2023-04-27T14:30:58.554Z,20.10
2023-04-27T14:33:25.118Z,19.57
2023-04-27T14:35:51.522Z,19.47
2023-04-27T14:38:18.077Z,19.64
2023-04-27T14:40:44.549Z,19.46
2023-04-27T14:43:11.020Z,19.27
2023-04-27T14:45:50.388Z,19.39
2023-04-27T14:48:18.986Z,19.33
2023-04-27T14:50:45.686Z,19.42
2023-04-27T14:53:12.083Z,19.28
2023-04-27T14:55:38.496Z,19.32
2023-04-27T14:58:04.944Z,19.53
2023-04-27T15:00:31.493Z,19.52
2023-04-27T15:02:57.981Z,19.84
2023-04-27T15:05:25.169Z,19.73
2023-04-27T15:07:51.631Z,19.93
2023-04-27T15:10:18.178Z,19.81
2023-04-27T15:12:44.804Z,19.66
2023-04-27T15:15:12.833Z,19.50
2023-04-27T15:17:39.331Z,19.53
2023-04-27T15:20:06.690Z,19.51
2023-04-27T15:22:33.138Z,19.64
2023-04-27T15:24:59.630Z,19.61
2023-04-27T15:27:26.329Z,19.57
2023-04-27T15:29:55.615Z,19.51
2023-04-27T15:32:24.534Z,19.78
2023-04-27T15:34:51.759Z,19.53
2023-04-27T15:37:18.301Z,19.49
2023-04-27T15:39:44.755Z,19.17
2023-04-27T15:42:11.162Z,19.17
2023-04-27T15:44:37.503Z,19.15
2023-04-27T15:47:04.299Z,19.00
2023-04-27T15:49:30.902Z,18.70
2023-04-27T15:51:57.263Z,18.55
2023-04-27T15:54:23.651Z,18.53
2023-04-27T15:56:49.987Z,18.71
2023-04-27T15:59:16.650Z,18.71
2023-04-27T16:01:43.232Z,18.41
2023-04-27T16:04:09.995Z,18.55
2023-04-27T16:06:37.832Z,18.61
2023-04-27T16:09:04.839Z,18.42
2023-04-27T16:11:31.691Z,18.30
2023-04-27T16:13:58.388Z,18.17
2023-04-27T16:16:24.988Z,18.03
2023-04-27T16:18:51.555Z,17.87
2023-04-27T16:21:17.968Z,17.97
2023-04-27T16:23:44.680Z,17.96
2023-04-27T16:26:11.148Z,17.73
2023-04-27T16:28:37.587Z,17.58
2023-04-27T16:31:04.326Z,17.48
2023-04-27T16:33:31.287Z,17.26
2023-04-27T16:35:57.700Z,17.08
2023-04-27T16:38:24.143Z,16.95
2023-04-27T16:40:51.898Z,16.85
2023-04-27T16:43:18.440Z,16.77
2023-04-27T16:45:44.889Z,16.66
2023-04-27T16:48:12.121Z,16.45
2023-04-27T16:50:38.732Z,16.35
2023-04-27T16:53:13.652Z,16.29
2023-04-27T16:55:40.205Z,16.22
2023-04-27T16:58:07.506Z,16.15
2023-04-27T17:00:33.881Z,16.11
2023-04-27T17:03:01.007Z,15.93
2023-04-27T17:05:27.545Z,15.80
2023-04-27T17:07:54.028Z,15.86
2023-04-27T17:10:20.531Z,15.86
2023-04-27T17:12:46.938Z,15.81
2023-04-27T17:15:13.397Z,15.72
2023-04-27T17:17:39.833Z,15.68
2023-04-27T17:20:07.689Z,15.55
2023-04-27T17:22:34.097Z,15.43
2023-04-27T17:25:00.685Z,15.32
2023-04-27T17:27:27.059Z,15.36
2023-04-27T17:29:54.662Z,15.35
2023-04-27T17:32:21.167Z,15.24
2023-04-27T17:34:47.768Z,15.19
2023-04-27T17:37:14.812Z,15.10
2023-04-27T17:39:41.421Z,14.97
2023-04-27T17:42:12.012Z,14.88
2023-04-27T17:44:41.202Z,14.86
2023-04-27T17:47:08.190Z,14.83
2023-04-27T17:49:35.134Z,14.78
2023-04-27T17:52:02.120Z,14.71
2023-04-27T17:54:30.059Z,14.62
2023-04-27T17:56:56.844Z,14.55
2023-04-27T17:59:23.440Z,14.44
2023-04-27T18:01:49.994Z,14.42
2023-04-27T18:04:16.506Z,14.41
2023-04-27T18:06:43.112Z,14.36
2023-04-27T18:09:10.097Z,14.21
2023-04-27T18:11:36.542Z,14.22
2023-04-27T18:14:03.675Z,14.22
2023-04-27T18:16:30.125Z,14.03
2023-04-27T18:18:56.562Z,14.00
2023-04-27T18:21:22.937Z,13.91
2023-04-27T18:23:49.429Z,13.85
2023-04-27T18:26:16.462Z,13.76
2023-04-27T18:28:43.234Z,13.76
2023-04-27T18:31:17.413Z,13.71
2023-04-27T18:33:44.914Z,13.61
2023-04-27T18:36:11.470Z,13.66
2023-04-27T18:38:37.983Z,13.64
2023-04-27T18:41:04.926Z,13.62
2023-04-27T18:43:36.549Z,13.61
2023-04-27T18:46:04.028Z,13.61
2023-04-27T18:48:30.517Z,13.55
2023-04-27T18:50:56.878Z,13.54
2023-04-27T18:53:23.380Z,13.52
2023-04-27T18:55:49.784Z,13.45
2023-04-27T18:58:16.274Z,13.40
2023-04-27T19:00:42.701Z,13.36
2023-04-27T19:03:09.238Z,13.35
2023-04-27T19:05:36.454Z,13.21
2023-04-27T19:08:03.052Z,13.27
2023-04-27T19:10:29.572Z,13.22
2023-04-27T19:12:56.955Z,13.21
2023-04-27T19:15:23.516Z,13.20
2023-04-27T19:17:55.489Z,13.16
2023-04-27T19:20:28.911Z,13.15
2023-04-27T19:22:55.288Z,13.16
2023-04-27T19:25:22.980Z,13.09
2023-04-27T19:27:49.457Z,13.06
2023-04-27T19:30:16.233Z,13.01
2023-04-27T19:32:43.544Z,13.03
2023-04-27T19:35:12.341Z,12.99
2023-04-27T19:37:38.853Z,12.90
2023-04-27T19:40:06.258Z,12.88
2023-04-27T19:42:32.669Z,12.89
2023-04-27T19:44:59.153Z,12.88
2023-04-27T19:47:25.930Z,12.85
2023-04-27T19:49:52.421Z,12.82
2023-04-27T19:52:18.830Z,12.77
2023-04-27T19:54:50.473Z,12.72
2023-04-27T19:57:16.878Z,12.73
2023-04-27T19:59:43.278Z,12.69
2023-04-27T20:02:09.679Z,12.70
2023-04-27T20:04:36.189Z,12.64
2023-04-27T20:07:04.389Z,12.62
2023-04-27T20:09:31.980Z,12.58
2023-04-27T20:11:58.391Z,12.55
2023-04-27T20:14:25.073Z,12.57
2023-04-27T20:16:51.538Z,12.53
2023-04-27T20:19:19.284Z,12.54
2023-04-27T20:21:45.629Z,12.46
2023-04-27T20:24:14.387Z,12.44
2023-04-27T20:26:40.867Z,12.40
2023-04-27T20:29:07.278Z,12.34
2023-04-27T20:31:33.943Z,12.30
2023-04-27T20:34:00.547Z,12.27
2023-04-27T20:36:27.532Z,12.26
2023-04-27T20:38:54.102Z,12.28
2023-04-27T20:41:21.486Z,12.29
2023-04-27T20:43:47.934Z,12.25
2023-04-27T20:46:14.539Z,12.21
2023-04-27T20:48:40.913Z,12.20
2023-04-27T20:51:07.332Z,12.17
2023-04-27T20:53:33.781Z,12.13
2023-04-27T20:56:00.200Z,12.08
2023-04-27T20:58:27.046Z,12.08
2023-04-27T21:00:53.376Z,12.06
2023-04-27T21:03:19.982Z,11.99
2023-04-27T21:05:47.189Z,11.95
2023-04-27T21:08:13.529Z,11.92
2023-04-27T21:10:39.883Z,11.87
2023-04-27T21:13:06.321Z,11.85
2023-04-27T21:15:33.393Z,11.85
2023-04-27T21:18:00.637Z,11.81
2023-04-27T21:20:27.417Z,11.78
2023-04-27T21:22:53.784Z,11.73
2023-04-27T21:25:22.261Z,11.69
2023-04-27T21:27:49.994Z,11.68
2023-04-27T21:30:16.480Z,11.69
2023-04-27T21:32:43.011Z,11.59
2023-04-27T21:35:10.255Z,11.50
2023-04-27T21:37:36.844Z,11.52
2023-04-27T21:40:04.833Z,11.46
2023-04-27T21:42:31.262Z,11.46
2023-04-27T21:44:57.759Z,11.47
2023-04-27T21:47:24.226Z,11.52
2023-04-27T21:49:52.362Z,11.51
2023-04-27T21:52:19.776Z,11.41
2023-04-27T21:54:46.145Z,11.40
2023-04-27T21:57:12.464Z,11.40
2023-04-27T21:59:38.866Z,11.39
2023-04-27T22:02:06.527Z,11.42
2023-04-27T22:04:38.396Z,11.40
2023-04-27T22:07:06.584Z,11.34
2023-04-27T22:09:33.066Z,11.22
2023-04-27T22:11:59.489Z,11.22
2023-04-27T22:14:25.869Z,11.24
2023-04-27T22:16:52.306Z,11.21
2023-04-27T22:19:19.161Z,11.20
2023-04-27T22:21:48.363Z,11.20
2023-04-27T22:24:14.935Z,11.19
2023-04-27T22:26:41.639Z,11.23
2023-04-27T22:29:08.007Z,11.19
2023-04-27T22:31:34.681Z,11.17
2023-04-27T22:34:03.239Z,11.15
2023-04-27T22:36:29.677Z,11.14
2023-04-27T22:38:56.079Z,11.19
2023-04-27T22:41:22.514Z,11.22
2023-04-27T22:43:48.870Z,11.16
2023-04-27T22:46:15.828Z,11.15
2023-04-27T22:48:43.524Z,11.16
2023-04-27T22:51:10.486Z,11.14
2023-04-27T22:53:37.357Z,11.09
2023-04-27T22:56:04.264Z,11.05
2023-04-27T22:58:30.684Z,11.03
2023-04-27T23:00:57.096Z,11.05
2023-04-27T23:03:23.787Z,11.00
2023-04-27T23:05:50.647Z,10.97
2023-04-27T23:08:18.520Z,11.03
2023-04-27T23:10:44.924Z,11.02
2023-04-27T23:13:11.424Z,10.93
2023-04-27T23:15:39.576Z,10.92
2023-04-27T23:18:06.234Z,10.92
2023-04-27T23:20:32.903Z,10.88
2023-04-27T23:22:59.284Z,10.83
2023-04-27T23:25:25.784Z,10.75
2023-04-27T23:27:52.913Z,10.75
2023-04-27T23:30:20.445Z,10.75
2023-04-27T23:32:46.895Z,10.79
2023-04-27T23:35:13.329Z,10.81
2023-04-27T23:37:39.769Z,10.78
2023-04-27T23:40:06.933Z,10.76
2023-04-27T23:42:33.313Z,10.74
2023-04-27T23:44:59.676Z,10.67
2023-04-27T23:47:26.062Z,10.60
2023-04-27T23:49:52.499Z,10.55
2023-04-27T23:52:18.918Z,10.48
2023-04-27T23:54:45.500Z,10.51
2023-04-27T23:57:11.818Z,10.47
2023-04-27T23:59:38.416Z,10.50
